Weather History for Fort Leonard Wood, MO

Change the Weather History Date:

Saturday, December 8, 2012

  Actual Average Record
Temperature  
Mean Temperature 45 °F -  
Max Temperature 48 °F 45 °F 60 °F (1999)
Min Temperature 42 °F 32 °F 5 °F (2006)
Degree Days  
Heating Degree Days 20    
Moisture  
Dew Point 45 °F    
Average Humidity 100    
Maximum Humidity 100    
Minimum Humidity 93    
Precipitation  
Precipitation 0.00 in - - ()
Sea Level Pressure  
Sea Level Pressure 29.91 in    
Wind  
Wind Speed 5 mph (NNE)    
Max Wind Speed 10 mph    
Max Gust Speed -    
Visibility 2 miles    
Events Fog    
Averages and records for this station are not official NWS values.
T = Trace of Precipitation, MM = Missing Value Source: NWS Daily Summary

Daily Weather History Graph

Daily Weather History Graph

Search for Another Location

Airport:

Trip Planner

Search our weather history database for the weather conditions in past years. The results will help you decide how hot, cold, wet, or windy it might be!

Date:

Astronomy

Dec. 08, 2012 Rise Set
Actual Time 7:11 AM CST 4:49 PM CST
Civil Twilight 6:42 AM CST 5:18 PM CST
Nautical Twilight 6:09 AM CST 5:51 PM CST
Astronomical Twilight 5:37 AM CST 6:23 PM CST
Moon 1:41 AM CST (12/8) 1:15 PM CST (12/8)
Length of Visible Light 10h 36m
Length of Day
9h 37m
Waning Crescent, 28% of the Moon is Illuminated
Dec 8
Waning Crescent
Dec 13
New
Dec 19
First Quarter
Dec 28
Full
Jan 4
Last Quarter

Hourly Weather History & Observations

Time (CST) Temp. Windchill Dew Point Humidity Pressure Visibility Wind Dir Wind Speed Gust Speed Precip Events Conditions
12:08 AM 48.2 °F - 48.2 °F 100% 29.88 in 4.0 mi NNW 5.8 mph - N/A   Overcast
12:09 AM 48.2 °F - 48.2 °F 100% 29.88 in 4.0 mi NNW 4.6 mph - N/A   Overcast
12:14 AM 48.2 °F - 48.2 °F 100% 29.88 in 4.0 mi NNW 5.8 mph - N/A   Light Drizzle
12:25 AM 48.2 °F - 48.2 °F 100% 29.88 in 4.0 mi NNW 4.6 mph - N/A   Overcast
12:55 AM 47.3 °F - 47.3 °F 100% 29.88 in 3.0 mi NW 4.6 mph - 0.00 in   Overcast
12:56 AM 48.2 °F - 48.2 °F 100% 29.88 in 3.0 mi NW 4.6 mph - N/A   Light Drizzle
12:57 AM 48.2 °F - 48.2 °F 100% 29.88 in 2.5 mi NW 4.6 mph - N/A   Light Drizzle
1:14 AM 46.4 °F 44.3 °F 46.4 °F 100% 29.88 in 2.5 mi NNW 4.6 mph - N/A   Overcast
1:42 AM 46.4 °F 44.3 °F 46.4 °F 100% 29.88 in 3.0 mi NNW 4.6 mph - N/A   Overcast
1:50 AM 46.4 °F 45.2 °F 46.4 °F 100% 29.88 in 2.5 mi NNW 3.5 mph - N/A   Overcast
1:51 AM 46.4 °F 45.2 °F 46.4 °F 100% 29.88 in 2.5 mi NW 3.5 mph - N/A   Drizzle
1:55 AM 46.9 °F - 46.9 °F 100% 29.88 in 2.5 mi NNW 4.6 mph - 0.00 in   Drizzle
2:05 AM 46.4 °F 45.2 °F 46.4 °F 100% 29.88 in 2.5 mi NW 3.5 mph - N/A   Overcast
2:07 AM 46.4 °F - 46.4 °F 100% 29.88 in 3.0 mi Calm Calm - N/A   Overcast
2:16 AM 46.4 °F - 46.4 °F 100% 29.88 in 4.0 mi Calm Calm - N/A   Overcast
2:23 AM 46.4 °F - 46.4 °F 100% 29.88 in 3.0 mi Calm Calm - N/A   Overcast
2:25 AM 46.4 °F - 46.4 °F 100% 29.88 in 3.0 mi Calm Calm - N/A   Overcast
2:27 AM 46.4 °F - 46.4 °F 100% 29.88 in 3.0 mi Calm Calm - N/A   Overcast
2:28 AM 46.4 °F - 46.4 °F 100% 29.88 in 3.0 mi Calm Calm - N/A   Light Drizzle
2:30 AM 46.4 °F - 46.4 °F 100% 29.88 in 2.5 mi Calm Calm - N/A   Light Drizzle
2:31 AM 46.4 °F - 46.4 °F 100% 29.88 in 2.5 mi Calm Calm - N/A   Light Drizzle
2:42 AM 46.4 °F - 46.4 °F 100% 29.88 in 2.5 mi Calm Calm - N/A   Overcast
2:44 AM 46.4 °F - 46.4 °F 100% 29.88 in 2.5 mi Calm Calm - N/A   Overcast
2:51 AM 46.4 °F - 46.4 °F 100% 29.88 in 3.0 mi Calm Calm - N/A   Overcast
2:55 AM 46.8 °F - 46.8 °F 100% 29.88 in 2.5 mi Calm Calm - 0.00 in   Light Drizzle
3:01 AM 46.4 °F 45.2 °F 46.4 °F 100% 29.88 in 3.0 mi South 3.5 mph - N/A   Light Drizzle
3:21 AM 46.4 °F - 46.4 °F 100% 29.88 in 3.0 mi Calm Calm - N/A   Overcast
3:42 AM 46.4 °F 45.2 °F 46.4 °F 100% 29.89 in 4.0 mi NW 3.5 mph - N/A   Overcast
3:53 AM 46.4 °F 45.2 °F 46.4 °F 100% 29.89 in 3.0 mi WNW 3.5 mph - N/A   Overcast
3:55 AM 46.8 °F - 46.8 °F 100% 29.89 in 3.0 mi Calm Calm - 0.00 in   Overcast
4:04 AM 46.4 °F 42.9 °F 46.4 °F 100% 29.89 in 2.5 mi NW 6.9 mph - N/A   Overcast
4:08 AM 46.4 °F 43.5 °F 46.4 °F 100% 29.89 in 1.8 mi NW 5.8 mph - N/A   Overcast
4:09 AM 46.4 °F 42.9 °F 46.4 °F 100% 29.89 in 1.8 mi NW 6.9 mph - N/A   Overcast
4:17 AM 46.4 °F 43.5 °F 46.4 °F 100% 29.90 in 2.0 mi NW 5.8 mph - N/A   Overcast
4:26 AM 46.4 °F 42.4 °F 46.4 °F 100% 29.90 in 3.0 mi NNW 8.1 mph - N/A   Overcast
4:37 AM 46.4 °F 42.9 °F 46.4 °F 100% 29.90 in 3.0 mi NNW 6.9 mph - N/A   Overcast
4:55 AM 46.2 °F 44.1 °F 46.2 °F 100% 29.90 in 3.0 mi NNW 4.6 mph - N/A   Overcast
5:07 AM 46.4 °F 43.5 °F 46.4 °F 100% 29.91 in 4.0 mi North 5.8 mph - N/A   Overcast
5:33 AM 46.4 °F 42.9 °F 46.4 °F 100% 29.91 in 4.0 mi NNW 6.9 mph - N/A   Overcast
5:34 AM 46.4 °F 42.4 °F 46.4 °F 100% 29.91 in 4.0 mi NNW 8.1 mph - N/A   Overcast
5:38 AM 46.4 °F 42.9 °F 46.4 °F 100% 29.92 in 2.5 mi NNW 6.9 mph - N/A   Overcast
5:42 AM 46.4 °F 42.9 °F 46.4 °F 100% 29.92 in 1.8 mi NNW 6.9 mph - N/A   Overcast
5:43 AM 46.4 °F 42.9 °F 46.4 °F 100% 29.92 in 1.8 mi NNW 6.9 mph - N/A   Overcast
5:44 AM 46.4 °F 42.9 °F 46.4 °F 100% 29.92 in 1.5 mi NNW 6.9 mph - N/A   Overcast
5:46 AM 46.4 °F 43.5 °F 46.4 °F 100% 29.92 in 1.2 mi NNW 5.8 mph - N/A   Overcast
5:48 AM 46.4 °F 43.5 °F 46.4 °F 100% 29.92 in 1.0 mi NNW 5.8 mph - N/A   Mist
5:51 AM 46.4 °F 42.9 °F 46.4 °F 100% 29.92 in 0.8 mi North 6.9 mph - N/A   Mist
5:53 AM 46.4 °F 43.5 °F 46.4 °F 100% 29.92 in 0.8 mi North 5.8 mph - N/A   Mist
5:55 AM 46.0 °F 43.1 °F 46.0 °F 100% 29.92 in 0.8 mi North 5.8 mph - N/A   Mist
5:57 AM 46.4 °F 43.5 °F 46.4 °F 100% 29.93 in 0.8 mi NNW 5.8 mph - N/A   Mist
5:58 AM 46.4 °F 45.2 °F 46.4 °F 100% 29.93 in 0.5 mi NNW 3.5 mph - N/A Fog Fog
6:10 AM 46.4 °F 41.9 °F 46.4 °F 100% 29.93 in 0.5 mi NNW 9.2 mph - N/A Fog Fog
6:11 AM 46.4 °F 42.4 °F 46.4 °F 100% 29.93 in 0.5 mi NNW 8.1 mph - N/A Fog Fog
6:12 AM 46.4 °F 42.9 °F 46.4 °F 100% 29.93 in 0.8 mi NNW 6.9 mph - N/A   Mist
6:14 AM 46.4 °F 42.9 °F 46.4 °F 100% 29.93 in 1.0 mi North 6.9 mph - N/A   Mist
6:16 AM 44.6 °F 41.4 °F 44.6 °F 100% 29.93 in 1.2 mi North 5.8 mph - N/A   Overcast
6:17 AM 44.6 °F 41.4 °F 44.6 °F 100% 29.93 in 1.5 mi North 5.8 mph - N/A   Overcast
6:18 AM 44.6 °F 41.4 °F 44.6 °F 100% 29.93 in 2.0 mi North 5.8 mph - N/A   Overcast
6:21 AM 44.6 °F 40.7 °F 44.6 °F 100% 29.93 in 2.5 mi NNW 6.9 mph - N/A   Overcast
6:22 AM 44.6 °F 40.7 °F 44.6 °F 100% 29.93 in 3.0 mi NNW 6.9 mph - N/A   Overcast
6:26 AM 44.6 °F 41.4 °F 44.6 °F 100% 29.93 in 2.5 mi NNW 5.8 mph - N/A   Overcast
6:30 AM 44.6 °F 40.7 °F 44.6 °F 100% 29.94 in 3.0 mi NNW 6.9 mph - N/A   Overcast
6:40 AM 44.6 °F 40.2 °F 44.6 °F 100% 29.94 in 5.0 mi NNW 8.1 mph - N/A   Overcast
6:49 AM 44.6 °F 42.2 °F 44.6 °F 100% 29.94 in 7.0 mi NNW 4.6 mph - N/A   Overcast
6:55 AM 44.8 °F 41.0 °F 44.8 °F 100% 29.94 in 7.0 mi North 6.9 mph - N/A   Overcast
7:17 AM 44.6 °F 40.7 °F 44.6 °F 100% 29.95 in 7.0 mi North 6.9 mph - N/A   Overcast
7:55 AM 44.4 °F 42.0 °F 44.4 °F 100% 29.95 in 3.0 mi North 4.6 mph - N/A   Overcast
8:55 AM 43.7 °F 39.1 °F 43.3 °F 99% 29.96 in 3.0 mi NNE 8.1 mph - N/A   Overcast
9:55 AM 43.3 °F 40.7 °F 43.2 °F 99% 29.97 in 6.0 mi NE 4.6 mph - N/A   Overcast
10:25 AM 42.8 °F 40.1 °F 42.8 °F 100% 29.97 in 3.0 mi North 4.6 mph - N/A   Overcast
10:55 AM 43.5 °F 40.9 °F 43.2 °F 99% 29.98 in 3.0 mi NNE 4.6 mph - N/A   Overcast
10:57 AM 42.8 °F 40.1 °F 42.8 °F 100% 29.97 in 3.0 mi NNE 4.6 mph - N/A   Overcast
11:51 AM 42.8 °F 39.3 °F 42.8 °F 100% 29.94 in 2.0 mi NNE 5.8 mph - N/A   Light Drizzle
11:55 AM 43.2 °F 40.5 °F 43.0 °F 99% 29.96 in 2.0 mi NNE 4.6 mph - N/A   Light Drizzle
12:52 PM 44.6 °F 41.4 °F 42.8 °F 93% 29.94 in 2.0 mi NE 5.8 mph - N/A   Light Drizzle
12:55 PM 43.7 °F 40.3 °F 43.5 °F 99% 29.94 in 2.0 mi NE 5.8 mph - N/A   Light Drizzle
1:55 PM 43.5 °F 39.4 °F 43.5 °F 100% 29.94 in 4.0 mi NNE 6.9 mph - N/A   Overcast
2:02 PM 42.8 °F 39.3 °F 42.8 °F 100% 29.91 in 2.0 mi ENE 5.8 mph - N/A   Light Drizzle
2:55 PM 43.9 °F 39.9 °F 43.9 °F 100% 29.92 in 3.0 mi East 6.9 mph - N/A   Light Drizzle
3:04 PM 44.6 °F 42.2 °F 44.6 °F 100% 29.92 in 9.0 mi ENE 4.6 mph - N/A   Overcast
3:29 PM 44.6 °F 41.4 °F 44.6 °F 100% 29.92 in 10.0 mi ENE 5.8 mph - N/A   Overcast
3:55 PM 44.2 °F 41.0 °F 44.1 °F 99% 29.93 in 7.0 mi ENE 5.8 mph - N/A   Overcast
4:00 PM 44.6 °F 42.2 °F 44.6 °F 100% 29.93 in 8.0 mi ENE 4.6 mph - N/A   Overcast
4:23 PM 44.6 °F 40.2 °F 44.6 °F 100% 29.92 in 5.0 mi ENE 8.1 mph - N/A   Overcast
4:35 PM 44.6 °F 40.7 °F 42.8 °F 93% 29.92 in 2.5 mi ENE 6.9 mph - N/A   Overcast
4:51 PM 42.8 °F 38.6 °F 42.8 °F 100% 29.93 in 1.8 mi NE 6.9 mph - N/A   Overcast
4:55 PM 43.7 °F 39.7 °F 43.7 °F 100% 29.92 in 1.8 mi NE 6.9 mph - N/A   Overcast
4:57 PM 42.8 °F 38.6 °F 42.8 °F 100% 29.92 in 2.0 mi ENE 6.9 mph - N/A   Overcast
5:04 PM 42.8 °F 40.1 °F 42.8 °F 100% 29.93 in 3.0 mi NE 4.6 mph - N/A   Overcast
5:12 PM 42.8 °F 37.5 °F 42.8 °F 100% 29.92 in 2.5 mi ENE 9.2 mph - N/A   Overcast
5:28 PM 42.8 °F 38.6 °F 42.8 °F 100% 29.92 in 1.8 mi ENE 6.9 mph - N/A   Overcast
5:32 PM 42.8 °F 37.5 °F 42.8 °F 100% 29.92 in 2.0 mi ENE 9.2 mph - N/A   Overcast
5:36 PM 42.8 °F 38.6 °F 42.8 °F 100% 29.92 in 2.0 mi ENE 6.9 mph - N/A   Overcast
5:40 PM 42.8 °F 39.3 °F 42.8 °F 100% 29.92 in 1.8 mi ENE 5.8 mph - N/A   Overcast
5:48 PM 42.8 °F 38.6 °F 42.8 °F 100% 29.92 in 1.5 mi ENE 6.9 mph - N/A   Overcast
5:55 PM 43.2 °F 37.9 °F 43.2 °F 100% 29.92 in 1.5 mi ENE 9.2 mph - N/A   Overcast
6:06 PM 42.8 °F 38.6 °F 42.8 °F 100% 29.91 in 1.5 mi ENE 6.9 mph - N/A   Overcast
6:15 PM 42.8 °F 37.5 °F 42.8 °F 100% 29.91 in 1.5 mi ENE 9.2 mph - N/A   Overcast
6:25 PM 42.8 °F 39.3 °F 42.8 °F 100% 29.92 in 1.5 mi ENE 5.8 mph - N/A   Overcast
6:38 PM 42.8 °F 37.5 °F 42.8 °F 100% 29.92 in 1.5 mi ENE 9.2 mph - N/A   Overcast
6:44 PM 42.8 °F 38.0 °F 42.8 °F 100% 29.91 in 1.5 mi ENE 8.1 mph - N/A   Overcast
6:55 PM 42.8 °F 38.0 °F 42.8 °F 100% 29.92 in 1.5 mi East 8.1 mph - N/A   Overcast
7:22 PM 42.8 °F 37.5 °F 42.8 °F 100% 29.92 in 1.8 mi East 9.2 mph - N/A   Overcast
7:27 PM 42.8 °F 39.3 °F 42.8 °F 100% 29.92 in 1.8 mi East 5.8 mph - N/A   Overcast
7:30 PM 42.8 °F 37.5 °F 42.8 °F 100% 29.92 in 2.0 mi ENE 9.2 mph - N/A   Overcast
7:36 PM 42.8 °F 37.5 °F 42.8 °F 100% 29.91 in 1.8 mi East 9.2 mph - N/A   Overcast
7:54 PM 42.8 °F 37.5 °F 42.8 °F 100% 29.91 in 1.5 mi East 9.2 mph - N/A   Overcast
7:55 PM 42.8 °F 38.0 °F 42.8 °F 100% 29.91 in 1.5 mi East 8.1 mph - N/A   Overcast
8:00 PM 42.8 °F 38.6 °F 42.8 °F 100% 29.91 in 1.5 mi East 6.9 mph - N/A   Overcast
8:12 PM 42.8 °F 38.6 °F 42.8 °F 100% 29.90 in 1.2 mi East 6.9 mph - N/A   Overcast
8:30 PM 42.8 °F 37.5 °F 42.8 °F 100% 29.90 in 1.2 mi East 9.2 mph - N/A   Overcast
8:33 PM 42.8 °F 38.0 °F 42.8 °F 100% 29.89 in 1.0 mi East 8.1 mph - N/A   Mist
8:55 PM 43.3 °F 39.2 °F 43.3 °F 100% 29.90 in 1.0 mi East 6.9 mph - N/A   Mist
9:03 PM 42.8 °F 37.5 °F 42.8 °F 100% 29.89 in 1.0 mi East 9.2 mph - N/A   Mist
9:08 PM 42.8 °F 37.5 °F 42.8 °F 100% 29.89 in 0.8 mi East 9.2 mph - N/A   Mist
9:29 PM 44.6 °F 39.2 °F 44.6 °F 100% 29.88 in 1.0 mi ESE 10.4 mph - N/A   Mist
9:32 PM 44.6 °F 39.2 °F 44.6 °F 100% 29.88 in 1.0 mi ESE 10.4 mph - N/A   Mist
9:42 PM 44.6 °F 39.2 °F 44.6 °F 100% 29.88 in 1.2 mi East 10.4 mph - N/A   Overcast
9:43 PM 44.6 °F 39.2 °F 44.6 °F 100% 29.88 in 1.2 mi East 10.4 mph - N/A   Overcast
9:55 PM 44.1 °F 40.1 °F 44.1 °F 100% 29.88 in 1.2 mi East 6.9 mph - N/A   Overcast
9:58 PM 44.6 °F 40.7 °F 44.6 °F 100% 29.88 in 1.5 mi East 6.9 mph - N/A   Overcast
10:04 PM 44.6 °F 41.4 °F 44.6 °F 100% 29.88 in 1.2 mi East 5.8 mph - N/A   Overcast
10:33 PM 44.6 °F 40.2 °F 44.6 °F 100% 29.88 in 1.0 mi East 8.1 mph - N/A   Mist
10:55 PM 44.6 °F 40.7 °F 44.6 °F 100% 29.88 in 1.0 mi East 6.9 mph - N/A   Mist
11:01 PM 44.6 °F 41.4 °F 44.6 °F 100% 29.88 in 1.0 mi East 5.8 mph - N/A   Mist
11:22 PM 44.6 °F 40.2 °F 44.6 °F 100% 29.87 in 0.8 mi ESE 8.1 mph - N/A   Mist
11:55 PM 45.1 °F 43.7 °F 45.1 °F 100% 29.86 in 0.8 mi ESE 3.5 mph - N/A   Mist